This is the latest recevied weather packets stored in our database for station/object JE3XST-13. If no packets are shown the sender has not sent any weather packets the latest 10 day(s).
| Time | Temp. | Humidity | Pressure | Rain* | Wind** | Luminosity | Snow |
|---|---|---|---|---|---|---|---|
| 1787890220 | 28.33° C | 83% | 1009.9 hPa | 0.76 mm | - | - | - |
| 1787888420 | 27.78° C | 86% | 1010.1 hPa | 1.02 mm | - | - | - |
| 1787886618 | 27.22° C | 88% | 1010.3 hPa | 1.02 mm | - | - | - |
| 1787884818 | 26.67° C | 90% | 1010.2 hPa | 0.76 mm | - | - | - |
| 1787883017 | 26.11° C | 90% | 1010.7 hPa | 1.02 mm | - | - | - |
| 1787881215 | 26.11° C | 90% | 1010.7 hPa | 1.02 mm | - | - | - |
| 1787879415 | 25.56° C | 92% | 1010.9 hPa | 1.02 mm | - | - | - |
| 1787877614 | 25.56° C | 93% | 1011.3 hPa | 1.27 mm | - | - | - |
| 1787875813 | 25° C | 93% | 1010.9 hPa | 1.27 mm | - | - | - |
| 1787874012 | 23.89° C | 96% | 1010.6 hPa | 1.27 mm | - | - | - |
| 1787872440 | 23.89° C | 95% | 1010.9 hPa | 1.52 mm | - | - | - |
| 1787871100 | 23.89° C | 96% | 1010.7 hPa | 1.27 mm | - | - | - |
| 1787869357 | 23.89° C | 96% | 1010.4 hPa | 1.27 mm | - | - | - |
| 1787867558 | 23.89° C | 96% | 1010.3 hPa | 1.52 mm | - | - | - |
| 1787865758 | 23.33° C | 97% | 1010.3 hPa | 1.52 mm | - | - | - |
| 1787863789 | 23.33° C | 96% | 1010 hPa | 1.52 mm | - | - | - |
| 1787861988 | 23.33° C | 96% | 1009.8 hPa | 1.52 mm | - | - | - |
| 1787860186 | 23.89° C | 96% | 1010.2 hPa | 1.52 mm | - | - | - |
| 1787858385 | 23.89° C | 95% | 1009.9 hPa | 1.52 mm | - | - | - |
| 1787856586 | 23.89° C | 95% | 1010.4 hPa | 1.52 mm | - | - | - |
| 1787854785 | 23.89° C | 94% | 1010.3 hPa | 1.78 mm | - | - | - |
| 1787852985 | 23.89° C | 93% | 1009.6 hPa | 2.29 mm | - | - | - |
| 1787851184 | 23.89° C | 94% | 1009.1 hPa | 2.29 mm | - | - | - |
| 1787851018 | 23.89° C | 94% | 1009.1 hPa | 2.29 mm | - | - | - |
| 1787849217 | 23.33° C | 92% | 1009.9 hPa | 2.29 mm | - | - | - |
* Rain latest hour (hover to see other rain measurements)
** Current wind speed in m/s (hover to see current wind gust speed)